Time,TemperatureF,DewpointF,PressureIn,WindDirection,WindDirectionDegrees,WindSpeedMPH,WindSpeedGustMPH,Humidity,HourlyPrecipIn,Conditions,Clouds,dailyrainin,SoftwareType,DateUTC
2013-03-01 00:02:00,44.8,43.5,0.00,East,93,0.4,2.5,95,0.00,,,0.00,WUHU216CR1000,2013-03-01 08:02:00,
2013-03-01 00:07:00,45.1,43.9,0.00,ESE,121,1.4,3.9,95,0.00,,,0.00,WUHU216CR1000,2013-03-01 08:07:00,
2013-03-01 00:12:00,45.1,43.9,0.00,ESE,121,1.4,3.9,95,0.00,,,0.00,WUHU216CR1000,2013-03-01 08:12:00,
2013-03-01 00:17:00,45.1,43.9,0.00,North,0,0.0,0.0,95,0.00,,,0.00,WUHU216CR1000,2013-03-01 08:17:00,
2013-03-01 00:22:00,45.1,43.9,0.00,North,0,0.0,0.0,95,0.00,,,0.00,WUHU216CR1000,2013-03-01 08:22:00,
2013-03-01 00:27:00,45.1,43.9,0.00,North,0,0.0,0.0,95,0.00,,,0.00,WUHU216CR1000,2013-03-01 08:27:00,
2013-03-01 00:32:00,46.2,45.0,0.00,NNW,327,0.2,2.0,96,0.00,,,0.00,WUHU216CR1000,2013-03-01 08:32:00,
2013-03-01 00:37:00,46.2,45.0,0.00,NNW,327,0.2,2.0,96,0.00,,,0.00,WUHU216CR1000,2013-03-01 08:37:00,
2013-03-01 00:42:00,46.2,45.0,0.00,NNW,327,0.2,2.0,96,0.00,,,0.00,WUHU216CR1000,2013-03-01 08:42:00,
2013-03-01 00:47:00,47.3,46.0,0.00,West,262,0.0,1.4,95,0.00,,,0.00,WUHU216CR1000,2013-03-01 08:47:00,
2013-03-01 00:52:00,47.3,46.0,0.00,West,262,0.0,1.4,95,0.00,,,0.00,WUHU216CR1000,2013-03-01 08:52:00,
2013-03-01 00:57:00,47.3,46.0,0.00,West,262,0.0,1.4,95,0.00,,,0.00,WUHU216CR1000,2013-03-01 08:57:00,
2013-03-01 01:02:00,47.8,46.2,0.00,NW,318,0.5,3.4,94,0.00,,,0.00,WUHU216CR1000,2013-03-01 09:02:00,
2013-03-01 01:07:00,47.8,46.2,0.00,NW,318,0.5,3.4,94,0.00,,,0.00,WUHU216CR1000,2013-03-01 09:07:00,
2013-03-01 01:12:00,47.8,46.2,0.00,NW,318,0.5,3.4,94,0.00,,,0.00,WUHU216CR1000,2013-03-01 09:12:00,
2013-03-01 01:17:00,48.3,46.2,0.00,NW,319,0.9,3.0,92,0.00,,,0.00,WUHU216CR1000,2013-03-01 09:17:00,
2013-03-01 01:22:00,48.3,46.2,0.00,NW,319,0.9,3.0,92,0.00,,,0.00,WUHU216CR1000,2013-03-01 09:22:00,
2013-03-01 01:27:00,48.3,46.2,0.00,NW,319,0.9,3.0,92,0.00,,,0.00,WUHU216CR1000,2013-03-01 09:27:00,
2013-03-01 01:32:00,48.2,45.9,0.00,North,0,0.0,0.0,92,0.00,,,0.00,WUHU216CR1000,2013-03-01 09:32:00,
2013-03-01 01:37:00,48.2,45.9,0.00,North,0,0.0,0.0,92,0.00,,,0.00,WUHU216CR1000,2013-03-01 09:37:00,
2013-03-01 01:42:00,48.2,45.9,0.00,North,0,0.0,0.0,92,0.00,,,0.00,WUHU216CR1000,2013-03-01 09:42:00,
2013-03-01 01:47:00,47.0,45.0,0.00,SW,229,1.2,2.2,93,0.00,,,0.00,WUHU216CR1000,2013-03-01 09:47:00,
2013-03-01 01:48:00,47.0,45.0,0.00,SW,229,1.2,2.2,93,0.00,,,0.00,WUHU216CR1000,2013-03-01 09:48:00,
2013-03-01 01:52:00,47.0,45.0,0.00,SW,229,1.2,2.2,93,0.00,,,0.00,WUHU216CR1000,2013-03-01 09:52:00,
2013-03-01 01:57:00,47.0,45.0,0.00,SW,229,1.2,2.2,93,0.00,,,0.00,WUHU216CR1000,2013-03-01 09:57:00,
2013-03-01 02:02:00,45.9,44.1,0.00,ESE,114,1.9,3.0,93,0.00,,,0.00,WUHU216CR1000,2013-03-01 10:02:00,
2013-03-01 02:07:00,45.9,44.1,0.00,ESE,114,1.9,3.0,93,0.00,,,0.00,WUHU216CR1000,2013-03-01 10:07:00,
2013-03-01 02:17:00,44.4,42.8,0.00,East,99,2.7,3.5,94,0.00,,,0.00,WUHU216CR1000,2013-03-01 10:17:00,
2013-03-01 02:22:00,44.4,42.8,0.00,East,99,2.7,3.5,94,0.00,,,0.00,WUHU216CR1000,2013-03-01 10:22:00,
2013-03-01 02:27:00,44.4,42.8,0.00,East,99,2.7,3.5,94,0.00,,,0.00,WUHU216CR1000,2013-03-01 10:27:00,
2013-03-01 02:32:00,44.2,42.9,0.00,ESE,112,1.8,3.7,95,0.00,,,0.00,WUHU216CR1000,2013-03-01 10:32:00,
2013-03-01 02:37:00,44.2,42.9,0.00,ESE,112,1.8,3.7,95,0.00,,,0.00,WUHU216CR1000,2013-03-01 10:37:00,
2013-03-01 02:42:00,44.2,42.9,0.00,ESE,112,1.8,3.7,95,0.00,,,0.00,WUHU216CR1000,2013-03-01 10:42:00,
2013-03-01 02:47:00,44.4,43.2,0.00,North,0,0.0,0.0,96,0.00,,,0.00,WUHU216CR1000,2013-03-01 10:47:00,
2013-03-01 02:52:00,44.4,43.2,0.00,North,0,0.0,0.0,96,0.00,,,0.00,WUHU216CR1000,2013-03-01 10:52:00,
2013-03-01 02:57:00,44.4,43.2,0.00,North,0,0.0,0.0,96,0.00,,,0.00,WUHU216CR1000,2013-03-01 10:57:00,
2013-03-01 03:02:00,45.8,44.7,0.00,NW,306,2.2,5.8,96,0.00,,,0.00,WUHU216CR1000,2013-03-01 11:02:00,
2013-03-01 03:03:00,45.8,44.7,0.00,NW,306,2.2,5.8,96,0.00,,,0.00,WUHU216CR1000,2013-03-01 11:03:00,
2013-03-01 03:07:00,45.8,44.7,0.00,NW,306,2.2,5.8,96,0.00,,,0.00,WUHU216CR1000,2013-03-01 11:07:00,
2013-03-01 03:12:00,45.8,44.7,0.00,NW,306,2.2,5.8,96,0.00,,,0.00,WUHU216CR1000,2013-03-01 11:12:00,
2013-03-01 03:17:00,46.4,44.9,0.00,NNE,30,1.7,4.6,94,0.00,,,0.00,WUHU216CR1000,2013-03-01 11:17:00,
2013-03-01 03:18:00,46.4,44.9,0.00,NNE,30,1.7,4.6,94,0.00,,,0.00,WUHU216CR1000,2013-03-01 11:18:00,
2013-03-01 03:22:00,46.4,44.9,0.00,NNE,30,1.7,4.6,94,0.00,,,0.00,WUHU216CR1000,2013-03-01 11:22:00,
2013-03-01 03:27:00,46.4,44.9,0.00,NNE,30,1.7,4.6,94,0.00,,,0.00,WUHU216CR1000,2013-03-01 11:27:00,
2013-03-01 03:32:00,46.4,44.7,0.00,NNE,12,0.6,2.6,94,0.00,,,0.00,WUHU216CR1000,2013-03-01 11:32:00,
2013-03-01 03:37:00,46.4,44.7,0.00,NNE,12,0.6,2.6,94,0.00,,,0.00,WUHU216CR1000,2013-03-01 11:37:00,
2013-03-01 03:42:00,46.4,44.7,0.00,NNE,12,0.6,2.6,94,0.00,,,0.00,WUHU216CR1000,2013-03-01 11:42:00,
2013-03-01 03:47:00,45.1,43.3,0.00,ESE,102,0.3,3.5,93,0.00,,,0.00,WUHU216CR1000,2013-03-01 11:47:00,
2013-03-01 03:52:00,45.1,43.3,0.00,ESE,102,0.3,3.5,93,0.00,,,0.00,WUHU216CR1000,2013-03-01 11:52:00,
2013-03-01 03:58:00,45.1,43.3,0.00,ESE,102,0.3,3.5,93,0.00,,,0.00,WUHU216CR1000,2013-03-01 11:58:00,
2013-03-01 04:02:00,42.0,40.2,0.00,ESE,102,2.5,3.9,93,0.00,,,0.00,WUHU216CR1000,2013-03-01 12:02:00,
2013-03-01 04:08:00,42.0,40.2,0.00,ESE,102,2.5,3.9,93,0.00,,,0.00,WUHU216CR1000,2013-03-01 12:08:00,
2013-03-01 04:17:00,42.0,40.6,0.00,ENE,78,2.7,3.9,95,0.00,,,0.00,WUHU216CR1000,2013-03-01 12:17:00,
2013-03-01 04:22:00,42.0,40.6,0.00,ENE,78,2.7,3.9,95,0.00,,,0.00,WUHU216CR1000,2013-03-01 12:22:00,
2013-03-01 04:27:00,42.0,40.6,0.00,ENE,78,2.7,3.9,95,0.00,,,0.00,WUHU216CR1000,2013-03-01 12:27:00,
2013-03-01 04:32:00,41.8,40.5,0.00,NE,50,1.7,3.0,95,0.00,,,0.00,WUHU216CR1000,2013-03-01 12:32:00,
2013-03-01 04:37:00,41.8,40.5,0.00,NE,50,1.7,3.0,95,0.00,,,0.00,WUHU216CR1000,2013-03-01 12:37:00,
2013-03-01 04:42:00,41.8,40.5,0.00,NE,50,1.7,3.0,95,0.00,,,0.00,WUHU216CR1000,2013-03-01 12:42:00,
2013-03-01 04:47:00,40.9,39.6,0.00,WNW,286,0.2,3.6,95,0.00,,,0.00,WUHU216CR1000,2013-03-01 12:47:00,
2013-03-01 04:52:00,40.9,39.6,0.00,WNW,286,0.2,3.6,95,0.00,,,0.00,WUHU216CR1000,2013-03-01 12:52:00,
2013-03-01 04:57:00,40.9,39.6,0.00,WNW,286,0.2,3.6,95,0.00,,,0.00,WUHU216CR1000,2013-03-01 12:57:00,
2013-03-01 05:02:00,40.8,39.7,0.00,SE,140,0.5,3.0,96,0.00,,,0.00,WUHU216CR1000,2013-03-01 13:02:00,
2013-03-01 05:07:00,40.8,39.7,0.00,SE,140,0.5,3.0,96,0.00,,,0.00,WUHU216CR1000,2013-03-01 13:07:00,
2013-03-01 05:12:00,40.8,39.7,0.00,SE,140,0.5,3.0,96,0.00,,,0.00,WUHU216CR1000,2013-03-01 13:12:00,
2013-03-01 05:17:00,41.0,39.9,0.00,ENE,64,1.9,4.2,96,0.00,,,0.00,WUHU216CR1000,2013-03-01 13:17:00,
2013-03-01 05:22:00,41.0,39.9,0.00,ENE,64,1.9,4.2,96,0.00,,,0.00,WUHU216CR1000,2013-03-01 13:22:00,
2013-03-01 05:27:00,41.0,39.9,0.00,ENE,64,1.9,4.2,96,0.00,,,0.00,WUHU216CR1000,2013-03-01 13:27:00,
2013-03-01 05:32:00,40.1,39.0,0.00,ESE,113,2.8,3.7,96,0.00,,,0.00,WUHU216CR1000,2013-03-01 13:32:00,
2013-03-01 05:37:00,40.1,39.0,0.00,ESE,113,2.8,3.7,96,0.00,,,0.00,WUHU216CR1000,2013-03-01 13:37:00,
2013-03-01 05:42:00,40.1,39.0,0.00,ESE,113,2.8,3.7,96,0.00,,,0.00,WUHU216CR1000,2013-03-01 13:42:00,
2013-03-01 05:47:00,39.4,38.4,0.00,SE,127,3.4,4.6,96,0.00,,,0.00,WUHU216CR1000,2013-03-01 13:47:00,
2013-03-01 05:52:00,39.4,38.4,0.00,SE,127,3.4,4.6,96,0.00,,,0.00,WUHU216CR1000,2013-03-01 13:52:00,
2013-03-01 05:57:00,39.4,38.4,0.00,SE,127,3.4,4.6,96,0.00,,,0.00,WUHU216CR1000,2013-03-01 13:57:00,
2013-03-01 06:02:00,40.3,39.4,0.00,ENE,61,1.5,3.3,96,0.00,,,0.00,WUHU216CR1000,2013-03-01 14:02:00,
2013-03-01 06:07:00,40.3,39.4,0.00,ENE,61,1.5,3.3,96,0.00,,,0.00,WUHU216CR1000,2013-03-01 14:07:00,
2013-03-01 06:12:00,40.3,39.4,0.00,ENE,61,1.5,3.3,96,0.00,,,0.00,WUHU216CR1000,2013-03-01 14:12:00,
2013-03-01 06:17:00,39.7,38.8,0.00,ESE,107,1.4,4.8,96,0.00,,,0.00,WUHU216CR1000,2013-03-01 14:17:00,
2013-03-01 06:22:00,39.7,38.8,0.00,ESE,107,1.4,4.8,96,0.00,,,0.00,WUHU216CR1000,2013-03-01 14:22:00,
2013-03-01 06:27:00,39.7,38.8,0.00,ESE,107,1.4,4.8,96,0.00,,,0.00,WUHU216CR1000,2013-03-01 14:27:00,
2013-03-01 06:32:00,39.1,38.2,0.00,ESE,118,4.1,5.6,96,0.00,,,0.00,WUHU216CR1000,2013-03-01 14:32:00,
2013-03-01 06:37:00,39.1,38.2,0.00,ESE,118,4.1,5.6,96,0.00,,,0.00,WUHU216CR1000,2013-03-01 14:37:00,
2013-03-01 06:42:00,39.1,38.2,0.00,ESE,118,4.1,5.6,96,0.00,,,0.00,WUHU216CR1000,2013-03-01 14:42:00,
2013-03-01 06:47:00,39.4,38.4,0.00,NE,54,3.3,5.0,96,0.00,,,0.00,WUHU216CR1000,2013-03-01 14:47:00,
2013-03-01 06:52:00,39.4,38.4,0.00,NE,54,3.3,5.0,96,0.00,,,0.00,WUHU216CR1000,2013-03-01 14:52:00,
2013-03-01 06:57:00,39.4,38.4,0.00,NE,54,3.3,5.0,96,0.00,,,0.00,WUHU216CR1000,2013-03-01 14:57:00,
2013-03-01 07:02:00,39.3,38.3,0.00,East,93,1.6,3.4,96,0.00,,,0.00,WUHU216CR1000,2013-03-01 15:02:00,
2013-03-01 07:07:00,39.3,38.3,0.00,East,93,1.6,3.4,96,0.00,,,0.00,WUHU216CR1000,2013-03-01 15:07:00,
2013-03-01 07:12:00,39.3,38.3,0.00,East,93,1.6,3.4,96,0.00,,,0.00,WUHU216CR1000,2013-03-01 15:12:00,
2013-03-01 07:17:00,39.5,38.5,0.00,East,86,1.5,3.6,96,0.00,,,0.00,WUHU216CR1000,2013-03-01 15:17:00,
2013-03-01 07:22:00,39.5,38.5,0.00,East,86,1.5,3.6,96,0.00,,,0.00,WUHU216CR1000,2013-03-01 15:22:00,
2013-03-01 07:27:00,39.5,38.5,0.00,East,86,1.5,3.6,96,0.00,,,0.00,WUHU216CR1000,2013-03-01 15:27:00,
2013-03-01 07:32:00,40.3,39.3,0.00,ESE,123,1.2,3.5,96,0.00,,,0.00,WUHU216CR1000,2013-03-01 15:32:00,
2013-03-01 07:33:00,40.3,39.3,0.00,ESE,123,1.2,3.5,96,0.00,,,0.00,WUHU216CR1000,2013-03-01 15:33:00,
2013-03-01 07:37:00,40.3,39.3,0.00,ESE,123,1.2,3.5,96,0.00,,,0.00,WUHU216CR1000,2013-03-01 15:37:00,
2013-03-01 07:42:00,40.3,39.3,0.00,ESE,123,1.2,3.5,96,0.00,,,0.00,WUHU216CR1000,2013-03-01 15:42:00,
2013-03-01 07:47:00,42.5,41.4,0.00,ESE,114,2.2,3.5,96,0.00,,,0.00,WUHU216CR1000,2013-03-01 15:47:00,
2013-03-01 07:52:00,42.5,41.4,0.00,ESE,114,2.2,3.5,96,0.00,,,0.00,WUHU216CR1000,2013-03-01 15:52:00,
2013-03-01 07:57:00,42.5,41.4,0.00,ESE,114,2.2,3.5,96,0.00,,,0.00,WUHU216CR1000,2013-03-01 15:57:00,
2013-03-01 08:02:00,44.5,43.3,0.00,East,101,2.3,3.5,95,0.00,,,0.00,WUHU216CR1000,2013-03-01 16:02:00,
2013-03-01 08:07:00,44.5,43.3,0.00,East,101,2.3,3.5,95,0.00,,,0.00,WUHU216CR1000,2013-03-01 16:07:00,
2013-03-01 08:12:00,44.5,43.3,0.00,East,101,2.3,3.5,95,0.00,,,0.00,WUHU216CR1000,2013-03-01 16:12:00,
2013-03-01 08:17:00,47.7,45.7,0.00,ESE,107,2.1,4.5,93,0.00,,,0.00,WUHU216CR1000,2013-03-01 16:17:00,
2013-03-01 08:22:00,47.7,45.7,0.00,ESE,107,2.1,4.5,93,0.00,,,0.00,WUHU216CR1000,2013-03-01 16:22:00,
2013-03-01 08:27:00,47.7,45.7,0.00,ESE,107,2.1,4.5,93,0.00,,,0.00,WUHU216CR1000,2013-03-01 16:27:00,
2013-03-01 08:32:00,50.5,46.6,0.00,North,8,1.9,7.0,87,0.00,,,0.00,WUHU216CR1000,2013-03-01 16:32:00,
2013-03-01 08:37:00,50.5,46.6,0.00,North,8,1.9,7.0,87,0.00,,,0.00,WUHU216CR1000,2013-03-01 16:37:00,
2013-03-01 08:42:00,50.5,46.6,0.00,North,8,1.9,7.0,87,0.00,,,0.00,WUHU216CR1000,2013-03-01 16:42:00,
2013-03-01 08:47:00,52.1,47.3,0.00,NNW,333,5.9,12.8,84,0.00,,,0.00,WUHU216CR1000,2013-03-01 16:47:00,
2013-03-01 08:52:00,52.1,47.3,0.00,NNW,333,5.9,12.8,84,0.00,,,0.00,WUHU216CR1000,2013-03-01 16:52:00,
2013-03-01 08:57:00,52.1,47.3,0.00,NNW,333,5.9,12.8,84,0.00,,,0.00,WUHU216CR1000,2013-03-01 16:57:00,
2013-03-01 09:02:00,53.4,47.8,0.00,NNW,332,5.9,11.1,81,0.00,,,0.00,WUHU216CR1000,2013-03-01 17:02:00,
2013-03-01 09:07:00,53.4,47.8,0.00,NNW,332,5.9,11.1,81,0.00,,,0.00,WUHU216CR1000,2013-03-01 17:07:00,
2013-03-01 09:17:00,54.6,48.0,0.00,NW,314,6.2,11.8,78,0.00,,,0.00,WUHU216CR1000,2013-03-01 17:17:00,
2013-03-01 09:22:00,54.6,48.0,0.00,NW,314,6.2,11.8,78,0.00,,,0.00,WUHU216CR1000,2013-03-01 17:22:00,
2013-03-01 09:27:00,54.6,48.0,0.00,NW,314,6.2,11.8,78,0.00,,,0.00,WUHU216CR1000,2013-03-01 17:27:00,
2013-03-01 09:32:00,56.1,48.2,0.00,NW,326,5.4,9.3,75,0.00,,,0.00,WUHU216CR1000,2013-03-01 17:32:00,
2013-03-01 09:37:00,56.1,48.2,0.00,NW,326,5.4,9.3,75,0.00,,,0.00,WUHU216CR1000,2013-03-01 17:37:00,
2013-03-01 09:42:00,56.1,48.2,0.00,NW,326,5.4,9.3,75,0.00,,,0.00,WUHU216CR1000,2013-03-01 17:42:00,
2013-03-01 09:47:00,57.5,48.6,0.00,NNW,340,4.6,7.7,72,0.00,,,0.00,WUHU216CR1000,2013-03-01 17:47:00,
2013-03-01 09:52:00,57.5,48.6,0.00,NNW,340,4.6,7.7,72,0.00,,,0.00,WUHU216CR1000,2013-03-01 17:52:00,
2013-03-01 09:57:00,57.5,48.6,0.00,NNW,340,4.6,7.7,72,0.00,,,0.00,WUHU216CR1000,2013-03-01 17:57:00,
2013-03-01 10:02:00,58.4,48.7,0.00,NW,316,1.9,4.6,70,0.00,,,0.00,WUHU216CR1000,2013-03-01 18:02:00,
2013-03-01 10:07:00,58.4,48.7,0.00,NW,316,1.9,4.6,70,0.00,,,0.00,WUHU216CR1000,2013-03-01 18:07:00,
2013-03-01 10:12:00,58.4,48.7,0.00,NW,316,1.9,4.6,70,0.00,,,0.00,WUHU216CR1000,2013-03-01 18:12:00,
2013-03-01 10:17:00,59.7,49.2,0.00,West,270,2.2,5.9,68,0.00,,,0.00,WUHU216CR1000,2013-03-01 18:17:00,
2013-03-01 10:22:00,59.7,49.2,0.00,West,270,2.2,5.9,68,0.00,,,0.00,WUHU216CR1000,2013-03-01 18:22:00,
2013-03-01 10:27:00,59.7,49.2,0.00,West,270,2.2,5.9,68,0.00,,,0.00,WUHU216CR1000,2013-03-01 18:27:00,
2013-03-01 10:32:00,61.0,49.4,0.00,NNW,338,1.6,6.9,66,0.00,,,0.00,WUHU216CR1000,2013-03-01 18:32:00,
2013-03-01 10:37:00,61.0,49.4,0.00,NNW,338,1.6,6.9,66,0.00,,,0.00,WUHU216CR1000,2013-03-01 18:37:00,
2013-03-01 10:42:00,61.0,49.4,0.00,NNW,338,1.6,6.9,66,0.00,,,0.00,WUHU216CR1000,2013-03-01 18:42:00,
2013-03-01 10:47:00,62.6,48.3,0.00,North,357,2.0,4.7,59,0.00,,,0.00,WUHU216CR1000,2013-03-01 18:47:00,
2013-03-01 10:52:00,62.6,48.3,0.00,North,357,2.0,4.7,59,0.00,,,0.00,WUHU216CR1000,2013-03-01 18:52:00,
2013-03-01 10:57:00,62.6,48.3,0.00,North,357,2.0,4.7,59,0.00,,,0.00,WUHU216CR1000,2013-03-01 18:57:00,
2013-03-01 11:02:00,64.5,49.4,0.00,North,355,2.2,5.6,58,0.00,,,0.00,WUHU216CR1000,2013-03-01 19:02:00,
2013-03-01 11:07:00,64.5,49.4,0.00,North,355,2.2,5.6,58,0.00,,,0.00,WUHU216CR1000,2013-03-01 19:07:00,
2013-03-01 11:12:00,64.5,49.4,0.00,North,355,2.2,5.6,58,0.00,,,0.00,WUHU216CR1000,2013-03-01 19:12:00,
2013-03-01 11:17:00,65.4,49.1,0.00,NNW,329,1.8,4.5,56,0.00,,,0.00,WUHU216CR1000,2013-03-01 19:17:00,
2013-03-01 11:22:00,65.4,49.1,0.00,NNW,329,1.8,4.5,56,0.00,,,0.00,WUHU216CR1000,2013-03-01 19:22:00,
2013-03-01 11:27:00,65.4,49.1,0.00,NNW,329,1.8,4.5,56,0.00,,,0.00,WUHU216CR1000,2013-03-01 19:27:00,
2013-03-01 11:32:00,66.2,48.9,0.00,WNW,290,2.2,4.5,54,0.00,,,0.00,WUHU216CR1000,2013-03-01 19:32:00,
2013-03-01 11:33:00,66.2,48.9,0.00,WNW,290,2.2,4.5,54,0.00,,,0.00,WUHU216CR1000,2013-03-01 19:33:00,
2013-03-01 11:37:00,66.2,48.9,0.00,WNW,290,2.2,4.5,54,0.00,,,0.00,WUHU216CR1000,2013-03-01 19:37:00,
2013-03-01 11:42:00,66.2,48.9,0.00,WNW,290,2.2,4.5,54,0.00,,,0.00,WUHU216CR1000,2013-03-01 19:42:00,
2013-03-01 11:47:00,67.3,48.4,0.00,West,277,2.2,6.6,51,0.00,,,0.00,WUHU216CR1000,2013-03-01 19:47:00,
2013-03-01 11:52:00,67.3,48.4,0.00,West,277,2.2,6.6,51,0.00,,,0.00,WUHU216CR1000,2013-03-01 19:52:00,
2013-03-01 11:57:00,67.3,48.4,0.00,West,277,2.2,6.6,51,0.00,,,0.00,WUHU216CR1000,2013-03-01 19:57:00,
2013-03-01 12:02:00,67.7,48.5,0.00,West,264,2.3,5.4,50,0.00,,,0.00,WUHU216CR1000,2013-03-01 20:02:00,
2013-03-01 12:07:00,67.7,48.5,0.00,West,264,2.3,5.4,50,0.00,,,0.00,WUHU216CR1000,2013-03-01 20:07:00,
2013-03-01 12:12:00,67.7,48.5,0.00,West,264,2.3,5.4,50,0.00,,,0.00,WUHU216CR1000,2013-03-01 20:12:00,
2013-03-01 12:17:00,68.4,48.8,0.00,NNW,345,2.4,5.4,50,0.00,,,0.00,WUHU216CR1000,2013-03-01 20:17:00,
2013-03-01 12:22:00,68.4,48.8,0.00,NNW,345,2.4,5.4,50,0.00,,,0.00,WUHU216CR1000,2013-03-01 20:22:00,
2013-03-01 12:27:00,68.4,48.8,0.00,NNW,345,2.4,5.4,50,0.00,,,0.00,WUHU216CR1000,2013-03-01 20:27:00,
2013-03-01 12:32:00,69.2,49.1,0.00,WNW,287,2.7,5.6,49,0.00,,,0.00,WUHU216CR1000,2013-03-01 20:32:00,
2013-03-01 12:37:00,69.2,49.1,0.00,WNW,287,2.7,5.6,49,0.00,,,0.00,WUHU216CR1000,2013-03-01 20:37:00,
2013-03-01 12:42:00,69.2,49.1,0.00,WNW,287,2.7,5.6,49,0.00,,,0.00,WUHU216CR1000,2013-03-01 20:42:00,
2013-03-01 12:47:00,69.8,49.0,0.00,NNE,24,1.9,5.8,48,0.00,,,0.00,WUHU216CR1000,2013-03-01 20:47:00,
2013-03-01 12:52:00,69.8,49.0,0.00,NNE,24,1.9,5.8,48,0.00,,,0.00,WUHU216CR1000,2013-03-01 20:52:00,
2013-03-01 12:57:00,69.8,49.0,0.00,NNE,24,1.9,5.8,48,0.00,,,0.00,WUHU216CR1000,2013-03-01 20:57:00,
2013-03-01 13:02:00,70.8,49.3,0.00,NNW,331,2.1,5.3,47,0.00,,,0.00,WUHU216CR1000,2013-03-01 21:02:00,
2013-03-01 13:07:00,70.8,49.3,0.00,NNW,331,2.1,5.3,47,0.00,,,0.00,WUHU216CR1000,2013-03-01 21:07:00,
2013-03-01 13:12:00,70.8,49.3,0.00,NNW,331,2.1,5.3,47,0.00,,,0.00,WUHU216CR1000,2013-03-01 21:12:00,
2013-03-01 13:17:00,71.3,49.1,0.00,WNW,303,2.9,6.5,45,0.00,,,0.00,WUHU216CR1000,2013-03-01 21:17:00,
2013-03-01 13:22:00,71.3,49.1,0.00,WNW,303,2.9,6.5,45,0.00,,,0.00,WUHU216CR1000,2013-03-01 21:22:00,
2013-03-01 13:27:00,71.3,49.1,0.00,WNW,303,2.9,6.5,45,0.00,,,0.00,WUHU216CR1000,2013-03-01 21:27:00,
2013-03-01 13:32:00,71.9,48.2,0.00,NW,313,3.1,7.0,43,0.00,,,0.00,WUHU216CR1000,2013-03-01 21:32:00,
2013-03-01 13:33:00,71.9,48.2,0.00,NW,313,3.1,7.0,43,0.00,,,0.00,WUHU216CR1000,2013-03-01 21:33:00,
2013-03-01 13:37:00,71.9,48.2,0.00,NW,313,3.1,7.0,43,0.00,,,0.00,WUHU216CR1000,2013-03-01 21:37:00,
2013-03-01 13:42:00,71.9,48.2,0.00,NW,313,3.1,7.0,43,0.00,,,0.00,WUHU216CR1000,2013-03-01 21:42:00,
2013-03-01 13:47:00,72.9,47.5,0.00,WNW,298,3.9,8.9,41,0.00,,,0.00,WUHU216CR1000,2013-03-01 21:47:00,
2013-03-01 13:52:00,72.9,47.5,0.00,WNW,298,3.9,8.9,41,0.00,,,0.00,WUHU216CR1000,2013-03-01 21:52:00,
2013-03-01 13:57:00,72.9,47.5,0.00,WNW,298,3.9,8.9,41,0.00,,,0.00,WUHU216CR1000,2013-03-01 21:57:00,
2013-03-01 14:02:00,73.8,45.2,0.00,WSW,245,3.8,7.0,36,0.00,,,0.00,WUHU216CR1000,2013-03-01 22:02:00,
2013-03-01 14:07:00,73.8,45.2,0.00,WSW,245,3.8,7.0,36,0.00,,,0.00,WUHU216CR1000,2013-03-01 22:07:00,
2013-03-01 14:12:00,73.8,45.2,0.00,WSW,245,3.8,7.0,36,0.00,,,0.00,WUHU216CR1000,2013-03-01 22:12:00,
2013-03-01 14:17:00,74.5,43.4,0.00,West,269,1.4,7.1,33,0.00,,,0.00,WUHU216CR1000,2013-03-01 22:17:00,
2013-03-01 14:22:00,74.5,43.4,0.00,West,269,1.4,7.1,33,0.00,,,0.00,WUHU216CR1000,2013-03-01 22:22:00,
2013-03-01 14:27:00,74.5,43.4,0.00,West,269,1.4,7.1,33,0.00,,,0.00,WUHU216CR1000,2013-03-01 22:27:00,
2013-03-01 14:32:00,74.7,43.3,0.00,NE,49,1.4,4.4,32,0.00,,,0.00,WUHU216CR1000,2013-03-01 22:32:00,
2013-03-01 14:37:00,74.7,43.3,0.00,NE,49,1.4,4.4,32,0.00,,,0.00,WUHU216CR1000,2013-03-01 22:37:00,
2013-03-01 14:42:00,74.7,43.3,0.00,NE,49,1.4,4.4,32,0.00,,,0.00,WUHU216CR1000,2013-03-01 22:42:00,
2013-03-01 14:47:00,75.3,42.9,0.00,WNW,294,1.8,4.2,31,0.00,,,0.00,WUHU216CR1000,2013-03-01 22:47:00,
2013-03-01 14:52:00,75.3,42.9,0.00,WNW,294,1.8,4.2,31,0.00,,,0.00,WUHU216CR1000,2013-03-01 22:52:00,
2013-03-01 14:57:00,75.3,42.9,0.00,WNW,294,1.8,4.2,31,0.00,,,0.00,WUHU216CR1000,2013-03-01 22:57:00,
2013-03-01 15:02:00,76.7,44.1,0.00,South,174,0.7,3.7,31,0.00,,,0.00,WUHU216CR1000,2013-03-01 23:02:00,
2013-03-01 15:03:00,76.7,44.1,0.00,South,174,0.7,3.7,31,0.00,,,0.00,WUHU216CR1000,2013-03-01 23:03:00,
2013-03-01 15:07:00,76.7,44.1,0.00,South,174,0.7,3.7,31,0.00,,,0.00,WUHU216CR1000,2013-03-01 23:07:00,
2013-03-01 15:12:00,76.7,44.1,0.00,South,174,0.7,3.7,31,0.00,,,0.00,WUHU216CR1000,2013-03-01 23:12:00,
2013-03-01 15:17:00,75.9,43.8,0.00,NW,307,1.7,5.8,32,0.00,,,0.00,WUHU216CR1000,2013-03-01 23:17:00,
2013-03-01 15:22:00,75.9,43.8,0.00,NW,307,1.7,5.8,32,0.00,,,0.00,WUHU216CR1000,2013-03-01 23:22:00,
2013-03-01 15:27:00,75.9,43.8,0.00,NW,307,1.7,5.8,32,0.00,,,0.00,WUHU216CR1000,2013-03-01 23:27:00,
2013-03-01 15:32:00,75.6,44.5,0.00,East,97,2.4,5.0,33,0.00,,,0.00,WUHU216CR1000,2013-03-01 23:32:00,
2013-03-01 15:37:00,75.6,44.5,0.00,East,97,2.4,5.0,33,0.00,,,0.00,WUHU216CR1000,2013-03-01 23:37:00,
2013-03-01 15:42:00,75.6,44.5,0.00,East,97,2.4,5.0,33,0.00,,,0.00,WUHU216CR1000,2013-03-01 23:42:00,
2013-03-01 15:47:00,75.8,45.7,0.00,South,176,3.1,6.5,34,0.00,,,0.00,WUHU216CR1000,2013-03-01 23:47:00,
2013-03-01 15:52:00,75.8,45.7,0.00,South,176,3.1,6.5,34,0.00,,,0.00,WUHU216CR1000,2013-03-01 23:52:00,
2013-03-01 15:57:00,75.8,45.7,0.00,South,176,3.1,6.5,34,0.00,,,0.00,WUHU216CR1000,2013-03-01 23:57:00,
2013-03-01 16:02:00,75.7,46.9,0.00,South,171,4.4,8.7,36,0.00,,,0.00,WUHU216CR1000,2013-03-02 00:02:00,
2013-03-01 16:07:00,75.7,46.9,0.00,South,171,4.4,8.7,36,0.00,,,0.00,WUHU216CR1000,2013-03-02 00:07:00,
2013-03-01 16:12:00,75.7,46.9,0.00,South,171,4.4,8.7,36,0.00,,,0.00,WUHU216CR1000,2013-03-02 00:12:00,
2013-03-01 16:17:00,75.0,46.6,0.00,South,173,5.2,9.0,37,0.00,,,0.00,WUHU216CR1000,2013-03-02 00:17:00,
2013-03-01 16:22:00,75.0,46.6,0.00,South,173,5.2,9.0,37,0.00,,,0.00,WUHU216CR1000,2013-03-02 00:22:00,
2013-03-01 16:27:00,75.0,46.6,0.00,South,173,5.2,9.0,37,0.00,,,0.00,WUHU216CR1000,2013-03-02 00:27:00,
2013-03-01 16:32:00,73.4,50.0,0.00,South,174,7.0,12.5,44,0.00,,,0.00,WUHU216CR1000,2013-03-02 00:32:00,
2013-03-01 16:37:00,73.4,50.0,0.00,South,174,7.0,12.5,44,0.00,,,0.00,WUHU216CR1000,2013-03-02 00:37:00,
2013-03-01 16:42:00,73.4,50.0,0.00,South,174,7.0,12.5,44,0.00,,,0.00,WUHU216CR1000,2013-03-02 00:42:00,
2013-03-01 16:47:00,71.8,50.9,0.00,South,188,6.0,10.5,48,0.00,,,0.00,WUHU216CR1000,2013-03-02 00:47:00,
2013-03-01 16:52:00,71.8,50.9,0.00,South,188,6.0,10.5,48,0.00,,,0.00,WUHU216CR1000,2013-03-02 00:52:00,
2013-03-01 16:57:00,71.8,50.9,0.00,South,188,6.0,10.5,48,0.00,,,0.00,WUHU216CR1000,2013-03-02 00:57:00,
2013-03-01 17:02:00,70.7,50.6,0.00,South,182,7.4,12.3,49,0.00,,,0.00,WUHU216CR1000,2013-03-02 01:02:00,
2013-03-01 17:07:00,70.7,50.6,0.00,South,182,7.4,12.3,49,0.00,,,0.00,WUHU216CR1000,2013-03-02 01:07:00,
2013-03-01 17:12:00,70.7,50.6,0.00,South,182,7.4,12.3,49,0.00,,,0.00,WUHU216CR1000,2013-03-02 01:12:00,
2013-03-01 17:17:00,70.1,50.7,0.00,South,179,5.7,10.0,50,0.00,,,0.00,WUHU216CR1000,2013-03-02 01:17:00,
2013-03-01 17:18:00,70.1,50.7,0.00,South,179,5.7,10.0,50,0.00,,,0.00,WUHU216CR1000,2013-03-02 01:18:00,
2013-03-01 17:22:00,70.1,50.7,0.00,South,179,5.7,10.0,50,0.00,,,0.00,WUHU216CR1000,2013-03-02 01:22:00,
2013-03-01 17:27:00,70.1,50.7,0.00,South,179,5.7,10.0,50,0.00,,,0.00,WUHU216CR1000,2013-03-02 01:27:00,